Terminal Aerodrome Forecast
Issued by NWS Lake Charles, LA

Home | Current Version | Previous Version | Text Only | Print | Product List | Glossary On
Versions: 1 2 3 4 5 6 7 8 9 10 11 12 13 14 15 16 17 18 19 20 21 22
000
FTUS44 KLCH 050500
TAFARA
TAF
KARA 050523Z 0506/0606 18008KT P6SM VCSH OVC007
     FM050800 33011KT P6SM VCSH OVC007
     FM051000 36016G24KT P6SM VCSH OVC007
      TEMPO 0510/0513 4SM SHRA
     FM051300 01022G28KT 4SM RA BR OVC007
     FM051900 01026G34KT P6SM VCSH OVC015
     FM060100 01020G27KT P6SM SKC=

USA.gov is the U.S. government's official web portal to all federal, state and local government web resources and services.